sensor_id;sensor_type;location;lat;lon;timestamp;temperature;humidity
11426;DHT22;5769;47.998;7.788;2024-02-21T00:01:03;17.80;74.20
11426;DHT22;5769;47.998;7.788;2024-02-21T00:03:34;17.80;74.20
11426;DHT22;5769;47.998;7.788;2024-02-21T00:06:02;17.80;74.20
11426;DHT22;5769;47.998;7.788;2024-02-21T00:08:29;17.80;74.20
11426;DHT22;5769;47.998;7.788;2024-02-21T00:10:56;17.80;74.20
11426;DHT22;5769;47.998;7.788;2024-02-21T00:13:25;17.80;74.90
11426;DHT22;5769;47.998;7.788;2024-02-21T00:15:52;17.80;74.20
11426;DHT22;5769;47.998;7.788;2024-02-21T00:18:19;17.80;74.20
11426;DHT22;5769;47.998;7.788;2024-02-21T00:20:50;17.80;74.10
11426;DHT22;5769;47.998;7.788;2024-02-21T00:23:17;17.80;74.10
11426;DHT22;5769;47.998;7.788;2024-02-21T00:25:44;17.80;74.20
11426;DHT22;5769;47.998;7.788;2024-02-21T00:28:11;17.80;74.10
11426;DHT22;5769;47.998;7.788;2024-02-21T00:30:38;17.80;74.10
11426;DHT22;5769;47.998;7.788;2024-02-21T00:33:04;17.80;74.10
11426;DHT22;5769;47.998;7.788;2024-02-21T00:35:31;17.80;74.10
11426;DHT22;5769;47.998;7.788;2024-02-21T00:37:59;17.80;74.10
11426;DHT22;5769;47.998;7.788;2024-02-21T00:40:28;17.80;74.10
11426;DHT22;5769;47.998;7.788;2024-02-21T00:42:55;17.80;74.20
11426;DHT22;5769;47.998;7.788;2024-02-21T00:45:25;17.80;74.10
11426;DHT22;5769;47.998;7.788;2024-02-21T00:47:52;17.80;74.10
11426;DHT22;5769;47.998;7.788;2024-02-21T00:50:18;17.80;74.10
11426;DHT22;5769;47.998;7.788;2024-02-21T00:52:47;17.80;74.10
11426;DHT22;5769;47.998;7.788;2024-02-21T00:55:18;17.80;74.10
11426;DHT22;5769;47.998;7.788;2024-02-21T00:57:50;17.80;74.10
11426;DHT22;5769;47.998;7.788;2024-02-21T01:00:18;17.80;74.10
11426;DHT22;5769;47.998;7.788;2024-02-21T01:02:45;17.80;74.00
11426;DHT22;5769;47.998;7.788;2024-02-21T01:05:12;17.80;74.00
11426;DHT22;5769;47.998;7.788;2024-02-21T01:07:40;17.80;74.00
11426;DHT22;5769;47.998;7.788;2024-02-21T01:10:08;17.80;74.00
11426;DHT22;5769;47.998;7.788;2024-02-21T01:12:36;17.80;74.00
11426;DHT22;5769;47.998;7.788;2024-02-21T01:15:04;17.80;74.00
11426;DHT22;5769;47.998;7.788;2024-02-21T01:17:31;17.80;74.00
11426;DHT22;5769;47.998;7.788;2024-02-21T01:19:58;17.80;74.00
11426;DHT22;5769;47.998;7.788;2024-02-21T01:22:25;17.80;74.00
11426;DHT22;5769;47.998;7.788;2024-02-21T01:24:52;17.80;74.00
11426;DHT22;5769;47.998;7.788;2024-02-21T01:27:19;17.80;74.00
11426;DHT22;5769;47.998;7.788;2024-02-21T01:29:48;17.80;74.00
11426;DHT22;5769;47.998;7.788;2024-02-21T01:32:15;17.80;74.00
11426;DHT22;5769;47.998;7.788;2024-02-21T01:34:42;17.80;74.00
11426;DHT22;5769;47.998;7.788;2024-02-21T01:37:09;17.80;74.00
11426;DHT22;5769;47.998;7.788;2024-02-21T01:39:37;17.80;74.00
11426;DHT22;5769;47.998;7.788;2024-02-21T01:42:04;17.80;74.00
11426;DHT22;5769;47.998;7.788;2024-02-21T01:44:32;17.80;74.10
11426;DHT22;5769;47.998;7.788;2024-02-21T01:47:00;17.80;74.10
11426;DHT22;5769;47.998;7.788;2024-02-21T01:49:27;17.80;74.10
11426;DHT22;5769;47.998;7.788;2024-02-21T01:51:54;17.80;74.10
11426;DHT22;5769;47.998;7.788;2024-02-21T01:54:22;17.80;74.10
11426;DHT22;5769;47.998;7.788;2024-02-21T01:56:49;17.80;74.10
11426;DHT22;5769;47.998;7.788;2024-02-21T01:59:17;17.80;74.10
11426;DHT22;5769;47.998;7.788;2024-02-21T02:01:46;17.80;74.10
11426;DHT22;5769;47.998;7.788;2024-02-21T02:04:15;17.80;74.10
11426;DHT22;5769;47.998;7.788;2024-02-21T02:06:41;17.80;74.00
11426;DHT22;5769;47.998;7.788;2024-02-21T02:09:08;17.80;74.10
11426;DHT22;5769;47.998;7.788;2024-02-21T02:11:35;17.80;74.80
11426;DHT22;5769;47.998;7.788;2024-02-21T02:14:02;17.80;74.00
11426;DHT22;5769;47.998;7.788;2024-02-21T02:16:29;17.80;74.10
11426;DHT22;5769;47.998;7.788;2024-02-21T02:18:56;17.80;74.00
11426;DHT22;5769;47.998;7.788;2024-02-21T02:21:29;17.80;74.00
11426;DHT22;5769;47.998;7.788;2024-02-21T02:23:59;17.80;74.00
11426;DHT22;5769;47.998;7.788;2024-02-21T02:26:25;17.80;74.00
11426;DHT22;5769;47.998;7.788;2024-02-21T02:28:54;17.80;74.10
11426;DHT22;5769;47.998;7.788;2024-02-21T02:31:21;17.80;74.00
11426;DHT22;5769;47.998;7.788;2024-02-21T02:33:55;17.80;74.00
11426;DHT22;5769;47.998;7.788;2024-02-21T02:36:22;17.80;74.00
11426;DHT22;5769;47.998;7.788;2024-02-21T02:38:49;17.80;74.00
11426;DHT22;5769;47.998;7.788;2024-02-21T02:41:17;17.80;74.00
11426;DHT22;5769;47.998;7.788;2024-02-21T02:43:46;17.80;74.00
11426;DHT22;5769;47.998;7.788;2024-02-21T02:46:15;17.80;74.00
11426;DHT22;5769;47.998;7.788;2024-02-21T02:48:49;17.80;73.90
11426;DHT22;5769;47.998;7.788;2024-02-21T02:51:18;17.80;73.90
11426;DHT22;5769;47.998;7.788;2024-02-21T02:53:45;17.80;73.90
11426;DHT22;5769;47.998;7.788;2024-02-21T02:56:14;17.80;73.90
11426;DHT22;5769;47.998;7.788;2024-02-21T02:58:42;17.80;73.90
11426;DHT22;5769;47.998;7.788;2024-02-21T03:01:09;17.80;73.90
11426;DHT22;5769;47.998;7.788;2024-02-21T03:03:38;17.80;73.90
11426;DHT22;5769;47.998;7.788;2024-02-21T03:06:05;17.80;73.90
11426;DHT22;5769;47.998;7.788;2024-02-21T03:08:32;17.80;73.90
11426;DHT22;5769;47.998;7.788;2024-02-21T03:10:59;17.80;73.90
11426;DHT22;5769;47.998;7.788;2024-02-21T03:13:26;17.80;73.90
11426;DHT22;5769;47.998;7.788;2024-02-21T03:15:54;17.80;73.90
11426;DHT22;5769;47.998;7.788;2024-02-21T03:18:28;17.80;73.90
11426;DHT22;5769;47.998;7.788;2024-02-21T03:20:59;17.80;73.90
11426;DHT22;5769;47.998;7.788;2024-02-21T03:23:29;17.80;73.90
11426;DHT22;5769;47.998;7.788;2024-02-21T03:25:58;17.80;73.80
11426;DHT22;5769;47.998;7.788;2024-02-21T03:28:24;17.80;73.90
11426;DHT22;5769;47.998;7.788;2024-02-21T03:30:51;17.80;73.90
11426;DHT22;5769;47.998;7.788;2024-02-21T03:33:19;17.80;73.90
11426;DHT22;5769;47.998;7.788;2024-02-21T03:35:48;17.80;73.90
11426;DHT22;5769;47.998;7.788;2024-02-21T03:38:15;17.80;73.90
11426;DHT22;5769;47.998;7.788;2024-02-21T03:40:44;17.80;74.00
11426;DHT22;5769;47.998;7.788;2024-02-21T03:43:11;17.80;74.00
11426;DHT22;5769;47.998;7.788;2024-02-21T03:45:38;17.80;74.00
11426;DHT22;5769;47.998;7.788;2024-02-21T03:48:06;17.80;74.00
11426;DHT22;5769;47.998;7.788;2024-02-21T03:50:34;17.80;74.00
11426;DHT22;5769;47.998;7.788;2024-02-21T03:53:00;17.80;74.00
11426;DHT22;5769;47.998;7.788;2024-02-21T03:55:30;17.80;74.00
11426;DHT22;5769;47.998;7.788;2024-02-21T03:57:57;17.80;74.00
11426;DHT22;5769;47.998;7.788;2024-02-21T04:00:24;17.80;74.00
11426;DHT22;5769;47.998;7.788;2024-02-21T04:02:50;17.80;73.90
11426;DHT22;5769;47.998;7.788;2024-02-21T04:05:17;17.80;73.90
11426;DHT22;5769;47.998;7.788;2024-02-21T04:07:45;17.80;73.90
11426;DHT22;5769;47.998;7.788;2024-02-21T04:10:12;17.80;73.90
11426;DHT22;5769;47.998;7.788;2024-02-21T04:12:39;17.80;73.90
11426;DHT22;5769;47.998;7.788;2024-02-21T04:15:06;17.80;73.90
11426;DHT22;5769;47.998;7.788;2024-02-21T04:17:34;17.80;73.90
11426;DHT22;5769;47.998;7.788;2024-02-21T04:20:02;17.80;73.90
11426;DHT22;5769;47.998;7.788;2024-02-21T04:22:31;17.80;73.90
11426;DHT22;5769;47.998;7.788;2024-02-21T04:25:02;17.80;73.90
11426;DHT22;5769;47.998;7.788;2024-02-21T04:27:29;17.80;73.90
11426;DHT22;5769;47.998;7.788;2024-02-21T04:29:55;17.80;73.90
11426;DHT22;5769;47.998;7.788;2024-02-21T04:32:22;17.80;73.90
11426;DHT22;5769;47.998;7.788;2024-02-21T04:34:49;17.80;73.80
11426;DHT22;5769;47.998;7.788;2024-02-21T04:37:19;17.80;73.80
11426;DHT22;5769;47.998;7.788;2024-02-21T04:39:46;17.80;73.80
11426;DHT22;5769;47.998;7.788;2024-02-21T04:42:14;17.80;73.80
11426;DHT22;5769;47.998;7.788;2024-02-21T04:44:41;17.80;73.80
11426;DHT22;5769;47.998;7.788;2024-02-21T04:47:08;17.80;73.80
11426;DHT22;5769;47.998;7.788;2024-02-21T04:49:35;17.80;73.80
11426;DHT22;5769;47.998;7.788;2024-02-21T04:52:02;17.80;73.80
11426;DHT22;5769;47.998;7.788;2024-02-21T04:54:30;17.80;73.80
11426;DHT22;5769;47.998;7.788;2024-02-21T04:56:57;17.80;73.80
11426;DHT22;5769;47.998;7.788;2024-02-21T04:59:25;17.80;73.80
11426;DHT22;5769;47.998;7.788;2024-02-21T05:01:52;17.80;73.80
11426;DHT22;5769;47.998;7.788;2024-02-21T05:04:19;17.80;73.80
11426;DHT22;5769;47.998;7.788;2024-02-21T05:06:45;17.80;73.80
11426;DHT22;5769;47.998;7.788;2024-02-21T05:09:12;17.80;73.80
11426;DHT22;5769;47.998;7.788;2024-02-21T05:11:39;17.80;73.80
11426;DHT22;5769;47.998;7.788;2024-02-21T05:14:06;17.80;73.80
11426;DHT22;5769;47.998;7.788;2024-02-21T05:16:40;17.80;73.80
11426;DHT22;5769;47.998;7.788;2024-02-21T05:19:06;17.80;73.80
11426;DHT22;5769;47.998;7.788;2024-02-21T05:21:33;17.80;73.80
11426;DHT22;5769;47.998;7.788;2024-02-21T05:24:00;17.80;73.80
11426;DHT22;5769;47.998;7.788;2024-02-21T05:26:28;17.80;73.70
11426;DHT22;5769;47.998;7.788;2024-02-21T05:28:54;17.80;73.80
11426;DHT22;5769;47.998;7.788;2024-02-21T05:31:26;17.80;73.70
11426;DHT22;5769;47.998;7.788;2024-02-21T05:34:11;17.80;73.80
11426;DHT22;5769;47.998;7.788;2024-02-21T05:36:38;17.80;73.80
11426;DHT22;5769;47.998;7.788;2024-02-21T05:39:04;17.80;73.80
11426;DHT22;5769;47.998;7.788;2024-02-21T05:41:33;17.80;74.50
11426;DHT22;5769;47.998;7.788;2024-02-21T05:44:00;17.80;73.80
11426;DHT22;5769;47.998;7.788;2024-02-21T05:46:27;17.80;73.80
11426;DHT22;5769;47.998;7.788;2024-02-21T05:48:58;17.80;73.80
11426;DHT22;5769;47.998;7.788;2024-02-21T05:51:27;17.80;73.80
11426;DHT22;5769;47.998;7.788;2024-02-21T05:53:53;17.80;73.80
11426;DHT22;5769;47.998;7.788;2024-02-21T05:56:20;17.80;73.80
11426;DHT22;5769;47.998;7.788;2024-02-21T05:58:47;17.80;73.80
11426;DHT22;5769;47.998;7.788;2024-02-21T06:01:14;17.80;73.80
11426;DHT22;5769;47.998;7.788;2024-02-21T06:03:40;17.80;73.80
11426;DHT22;5769;47.998;7.788;2024-02-21T06:06:07;17.80;73.80
11426;DHT22;5769;47.998;7.788;2024-02-21T06:08:39;17.80;73.80
11426;DHT22;5769;47.998;7.788;2024-02-21T06:11:06;17.80;73.80
11426;DHT22;5769;47.998;7.788;2024-02-21T06:13:38;17.80;73.80
11426;DHT22;5769;47.998;7.788;2024-02-21T06:16:09;17.80;73.80
11426;DHT22;5769;47.998;7.788;2024-02-21T06:18:38;17.80;73.80
11426;DHT22;5769;47.998;7.788;2024-02-21T06:21:07;17.80;73.80
11426;DHT22;5769;47.998;7.788;2024-02-21T06:23:41;17.80;73.70
11426;DHT22;5769;47.998;7.788;2024-02-21T06:26:08;17.80;73.70
11426;DHT22;5769;47.998;7.788;2024-02-21T06:28:37;17.80;73.80
11426;DHT22;5769;47.998;7.788;2024-02-21T06:31:08;17.80;73.70
11426;DHT22;5769;47.998;7.788;2024-02-21T06:33:36;17.80;73.70
11426;DHT22;5769;47.998;7.788;2024-02-21T06:36:05;17.80;73.70
11426;DHT22;5769;47.998;7.788;2024-02-21T06:38:35;17.80;73.70
11426;DHT22;5769;47.998;7.788;2024-02-21T06:41:03;17.80;73.70
11426;DHT22;5769;47.998;7.788;2024-02-21T06:43:30;17.80;73.70
11426;DHT22;5769;47.998;7.788;2024-02-21T06:45:59;17.80;73.70
11426;DHT22;5769;47.998;7.788;2024-02-21T06:48:28;17.80;73.70
11426;DHT22;5769;47.998;7.788;2024-02-21T06:50:55;17.80;73.60
11426;DHT22;5769;47.998;7.788;2024-02-21T06:53:24;17.80;73.60
11426;DHT22;5769;47.998;7.788;2024-02-21T06:55:51;17.80;73.60
11426;DHT22;5769;47.998;7.788;2024-02-21T06:58:25;17.80;73.70
11426;DHT22;5769;47.998;7.788;2024-02-21T07:00:51;17.80;73.70
11426;DHT22;5769;47.998;7.788;2024-02-21T07:03:24;17.80;73.60
11426;DHT22;5769;47.998;7.788;2024-02-21T07:05:54;17.80;73.50
11426;DHT22;5769;47.998;7.788;2024-02-21T07:08:20;17.80;73.20
11426;DHT22;5769;47.998;7.788;2024-02-21T07:10:48;17.80;73.10
11426;DHT22;5769;47.998;7.788;2024-02-21T07:13:17;17.80;73.10
11426;DHT22;5769;47.998;7.788;2024-02-21T07:15:56;17.80;73.00
11426;DHT22;5769;47.998;7.788;2024-02-21T07:18:26;17.80;72.90
11426;DHT22;5769;47.998;7.788;2024-02-21T07:20:58;17.80;72.90
11426;DHT22;5769;47.998;7.788;2024-02-21T07:23:30;17.80;72.90
11426;DHT22;5769;47.998;7.788;2024-02-21T07:25:57;17.80;72.80
11426;DHT22;5769;47.998;7.788;2024-02-21T07:28:24;17.80;72.80
11426;DHT22;5769;47.998;7.788;2024-02-21T07:30:55;17.80;72.80
11426;DHT22;5769;47.998;7.788;2024-02-21T07:33:22;17.80;72.80
11426;DHT22;5769;47.998;7.788;2024-02-21T07:35:54;17.80;72.70
11426;DHT22;5769;47.998;7.788;2024-02-21T07:38:23;17.80;72.70
11426;DHT22;5769;47.998;7.788;2024-02-21T07:40:51;17.80;72.70
11426;DHT22;5769;47.998;7.788;2024-02-21T07:43:17;17.80;72.70
11426;DHT22;5769;47.998;7.788;2024-02-21T07:45:48;17.80;72.70
11426;DHT22;5769;47.998;7.788;2024-02-21T07:48:17;17.80;72.60
11426;DHT22;5769;47.998;7.788;2024-02-21T07:50:45;17.80;72.60
11426;DHT22;5769;47.998;7.788;2024-02-21T07:53:14;17.80;72.60
11426;DHT22;5769;47.998;7.788;2024-02-21T07:55:41;17.80;72.60
11426;DHT22;5769;47.998;7.788;2024-02-21T07:58:08;17.90;72.60
11426;DHT22;5769;47.998;7.788;2024-02-21T08:00:38;17.90;72.40
11426;DHT22;5769;47.998;7.788;2024-02-21T08:03:07;17.90;72.40
11426;DHT22;5769;47.998;7.788;2024-02-21T08:05:42;18.00;72.50
11426;DHT22;5769;47.998;7.788;2024-02-21T08:08:13;17.90;72.40
11426;DHT22;5769;47.998;7.788;2024-02-21T08:10:50;18.00;72.50
11426;DHT22;5769;47.998;7.788;2024-02-21T08:13:46;17.90;72.40
11426;DHT22;5769;47.998;7.788;2024-02-21T08:16:20;17.90;72.50
11426;DHT22;5769;47.998;7.788;2024-02-21T08:18:56;17.90;72.50
11426;DHT22;5769;47.998;7.788;2024-02-21T08:21:24;17.90;72.50
11426;DHT22;5769;47.998;7.788;2024-02-21T08:23:53;17.90;72.40
11426;DHT22;5769;47.998;7.788;2024-02-21T08:26:28;17.90;72.40
11426;DHT22;5769;47.998;7.788;2024-02-21T08:28:56;17.90;72.40
11426;DHT22;5769;47.998;7.788;2024-02-21T08:31:25;17.90;72.40
11426;DHT22;5769;47.998;7.788;2024-02-21T08:33:56;17.90;72.40
11426;DHT22;5769;47.998;7.788;2024-02-21T08:36:29;17.90;72.40
11426;DHT22;5769;47.998;7.788;2024-02-21T08:38:56;17.90;72.40
11426;DHT22;5769;47.998;7.788;2024-02-21T08:41:23;17.90;72.40
11426;DHT22;5769;47.998;7.788;2024-02-21T08:43:50;17.90;72.40
11426;DHT22;5769;47.998;7.788;2024-02-21T08:46:17;17.90;72.40
11426;DHT22;5769;47.998;7.788;2024-02-21T08:48:44;17.90;72.40
11426;DHT22;5769;47.998;7.788;2024-02-21T08:51:12;17.90;72.40
11426;DHT22;5769;47.998;7.788;2024-02-21T08:53:46;17.90;72.40
11426;DHT22;5769;47.998;7.788;2024-02-21T08:56:19;17.90;72.40
11426;DHT22;5769;47.998;7.788;2024-02-21T08:58:48;17.90;72.30
11426;DHT22;5769;47.998;7.788;2024-02-21T09:01:17;17.90;72.30
11426;DHT22;5769;47.998;7.788;2024-02-21T09:03:59;17.90;72.30
11426;DHT22;5769;47.998;7.788;2024-02-21T09:06:31;17.90;72.30
11426;DHT22;5769;47.998;7.788;2024-02-21T09:09:00;17.90;72.30
11426;DHT22;5769;47.998;7.788;2024-02-21T09:11:27;17.90;72.30
11426;DHT22;5769;47.998;7.788;2024-02-21T09:13:54;17.90;72.30
11426;DHT22;5769;47.998;7.788;2024-02-21T09:16:25;17.90;72.30
11426;DHT22;5769;47.998;7.788;2024-02-21T09:18:55;17.90;72.30
11426;DHT22;5769;47.998;7.788;2024-02-21T09:21:30;17.90;72.30
11426;DHT22;5769;47.998;7.788;2024-02-21T09:24:01;17.90;72.30
11426;DHT22;5769;47.998;7.788;2024-02-21T09:26:32;17.90;72.30
11426;DHT22;5769;47.998;7.788;2024-02-21T09:29:03;17.90;72.30
11426;DHT22;5769;47.998;7.788;2024-02-21T09:31:30;17.90;72.20
11426;DHT22;5769;47.998;7.788;2024-02-21T09:33:59;17.90;72.20
11426;DHT22;5769;47.998;7.788;2024-02-21T09:36:27;17.90;72.20
11426;DHT22;5769;47.998;7.788;2024-02-21T09:39:00;17.90;72.20
11426;DHT22;5769;47.998;7.788;2024-02-21T09:41:33;17.90;72.20
11426;DHT22;5769;47.998;7.788;2024-02-21T09:44:07;17.90;72.20
11426;DHT22;5769;47.998;7.788;2024-02-21T09:46:44;17.90;72.20
11426;DHT22;5769;47.998;7.788;2024-02-21T09:49:21;17.90;72.20
11426;DHT22;5769;47.998;7.788;2024-02-21T09:51:54;17.90;72.20
11426;DHT22;5769;47.998;7.788;2024-02-21T09:54:23;17.90;72.20
11426;DHT22;5769;47.998;7.788;2024-02-21T09:56:50;17.90;72.20
11426;DHT22;5769;47.998;7.788;2024-02-21T09:59:17;17.90;72.10
11426;DHT22;5769;47.998;7.788;2024-02-21T10:01:44;17.90;72.10
11426;DHT22;5769;47.998;7.788;2024-02-21T10:04:12;17.90;72.10
11426;DHT22;5769;47.998;7.788;2024-02-21T10:06:39;17.90;72.10
11426;DHT22;5769;47.998;7.788;2024-02-21T10:09:06;17.90;72.10
11426;DHT22;5769;47.998;7.788;2024-02-21T10:11:36;17.90;72.10
11426;DHT22;5769;47.998;7.788;2024-02-21T10:14:04;17.90;72.10
11426;DHT22;5769;47.998;7.788;2024-02-21T10:16:31;17.90;72.10
11426;DHT22;5769;47.998;7.788;2024-02-21T10:18:58;17.90;72.10
11426;DHT22;5769;47.998;7.788;2024-02-21T10:21:25;17.90;72.20
11426;DHT22;5769;47.998;7.788;2024-02-21T10:23:52;17.90;72.10
11426;DHT22;5769;47.998;7.788;2024-02-21T10:26:20;17.90;72.10
11426;DHT22;5769;47.998;7.788;2024-02-21T10:28:48;17.90;72.10
11426;DHT22;5769;47.998;7.788;2024-02-21T10:31:24;17.90;72.10
11426;DHT22;5769;47.998;7.788;2024-02-21T10:33:55;17.90;72.10
11426;DHT22;5769;47.998;7.788;2024-02-21T10:36:23;17.90;72.10
11426;DHT22;5769;47.998;7.788;2024-02-21T10:38:53;17.90;72.10
11426;DHT22;5769;47.998;7.788;2024-02-21T10:41:21;17.90;72.10
11426;DHT22;5769;47.998;7.788;2024-02-21T10:43:52;17.90;72.10
11426;DHT22;5769;47.998;7.788;2024-02-21T10:46:24;17.90;72.10
11426;DHT22;5769;47.998;7.788;2024-02-21T10:49:02;17.90;72.10
11426;DHT22;5769;47.998;7.788;2024-02-21T10:51:37;17.90;72.10
11426;DHT22;5769;47.998;7.788;2024-02-21T10:54:16;17.90;72.10
11426;DHT22;5769;47.998;7.788;2024-02-21T10:56:46;17.90;72.10
11426;DHT22;5769;47.998;7.788;2024-02-21T10:59:18;17.90;72.10
11426;DHT22;5769;47.998;7.788;2024-02-21T11:01:47;17.90;72.10
11426;DHT22;5769;47.998;7.788;2024-02-21T11:04:18;17.90;72.10
11426;DHT22;5769;47.998;7.788;2024-02-21T11:06:46;17.90;72.10
11426;DHT22;5769;47.998;7.788;2024-02-21T11:09:18;17.90;72.10
11426;DHT22;5769;47.998;7.788;2024-02-21T11:11:49;17.90;72.00
11426;DHT22;5769;47.998;7.788;2024-02-21T11:14:20;17.90;72.00
11426;DHT22;5769;47.998;7.788;2024-02-21T11:16:52;17.90;72.00
11426;DHT22;5769;47.998;7.788;2024-02-21T11:19:22;17.90;72.00
11426;DHT22;5769;47.998;7.788;2024-02-21T11:21:52;17.90;72.00
11426;DHT22;5769;47.998;7.788;2024-02-21T11:24:27;17.90;72.00
11426;DHT22;5769;47.998;7.788;2024-02-21T11:26:55;17.90;72.00
11426;DHT22;5769;47.998;7.788;2024-02-21T11:29:30;17.90;72.00
11426;DHT22;5769;47.998;7.788;2024-02-21T11:32:02;17.90;72.00
11426;DHT22;5769;47.998;7.788;2024-02-21T11:34:33;17.90;72.70
11426;DHT22;5769;47.998;7.788;2024-02-21T11:37:04;17.90;72.00
11426;DHT22;5769;47.998;7.788;2024-02-21T11:39:41;17.90;72.00
11426;DHT22;5769;47.998;7.788;2024-02-21T11:42:09;17.90;72.00
11426;DHT22;5769;47.998;7.788;2024-02-21T11:44:43;17.90;72.00
11426;DHT22;5769;47.998;7.788;2024-02-21T11:47:16;17.90;72.00
11426;DHT22;5769;47.998;7.788;2024-02-21T11:49:45;17.90;72.00
11426;DHT22;5769;47.998;7.788;2024-02-21T11:52:16;17.90;72.00
11426;DHT22;5769;47.998;7.788;2024-02-21T11:54:46;17.90;71.90
11426;DHT22;5769;47.998;7.788;2024-02-21T11:57:26;17.90;72.00
11426;DHT22;5769;47.998;7.788;2024-02-21T11:59:56;17.90;72.70
11426;DHT22;5769;47.998;7.788;2024-02-21T12:02:30;17.90;72.00
11426;DHT22;5769;47.998;7.788;2024-02-21T12:04:59;17.90;71.90
11426;DHT22;5769;47.998;7.788;2024-02-21T12:07:25;17.90;72.00
11426;DHT22;5769;47.998;7.788;2024-02-21T12:09:54;17.90;71.90
11426;DHT22;5769;47.998;7.788;2024-02-21T12:12:21;17.90;72.00
11426;DHT22;5769;47.998;7.788;2024-02-21T12:14:56;17.90;72.00
11426;DHT22;5769;47.998;7.788;2024-02-21T12:17:24;17.90;72.00
11426;DHT22;5769;47.998;7.788;2024-02-21T12:19:54;17.90;71.90
11426;DHT22;5769;47.998;7.788;2024-02-21T12:22:20;17.90;72.00
11426;DHT22;5769;47.998;7.788;2024-02-21T12:24:50;17.90;71.90
11426;DHT22;5769;47.998;7.788;2024-02-21T12:27:19;17.90;71.90
11426;DHT22;5769;47.998;7.788;2024-02-21T12:29:49;17.90;71.90
11426;DHT22;5769;47.998;7.788;2024-02-21T12:32:19;17.90;71.90
11426;DHT22;5769;47.998;7.788;2024-02-21T12:34:46;17.90;72.60
11426;DHT22;5769;47.998;7.788;2024-02-21T12:37:13;17.90;71.90
11426;DHT22;5769;47.998;7.788;2024-02-21T12:39:41;17.90;71.80
11426;DHT22;5769;47.998;7.788;2024-02-21T12:42:08;17.90;71.80
11426;DHT22;5769;47.998;7.788;2024-02-21T12:44:37;17.90;71.80
11426;DHT22;5769;47.998;7.788;2024-02-21T12:47:04;17.90;71.80
11426;DHT22;5769;47.998;7.788;2024-02-21T12:49:39;17.90;71.80
11426;DHT22;5769;47.998;7.788;2024-02-21T12:52:09;17.90;71.80
11426;DHT22;5769;47.998;7.788;2024-02-21T12:54:43;17.90;71.80
11426;DHT22;5769;47.998;7.788;2024-02-21T12:57:14;17.90;71.80
11426;DHT22;5769;47.998;7.788;2024-02-21T12:59:41;17.90;71.70
11426;DHT22;5769;47.998;7.788;2024-02-21T13:02:09;17.90;71.70
11426;DHT22;5769;47.998;7.788;2024-02-21T13:04:39;17.90;71.70
11426;DHT22;5769;47.998;7.788;2024-02-21T13:07:07;17.90;71.70
11426;DHT22;5769;47.998;7.788;2024-02-21T13:09:35;17.90;71.60
11426;DHT22;5769;47.998;7.788;2024-02-21T13:12:02;17.90;71.60
11426;DHT22;5769;47.998;7.788;2024-02-21T13:14:32;17.90;71.60
11426;DHT22;5769;47.998;7.788;2024-02-21T13:17:03;17.90;71.50
11426;DHT22;5769;47.998;7.788;2024-02-21T13:19:30;17.90;71.50
11426;DHT22;5769;47.998;7.788;2024-02-21T13:22:02;17.90;71.60
11426;DHT22;5769;47.998;7.788;2024-02-21T13:24:38;17.90;71.50
11426;DHT22;5769;47.998;7.788;2024-02-21T13:27:05;17.90;71.50
11426;DHT22;5769;47.998;7.788;2024-02-21T13:29:32;17.90;71.50
11426;DHT22;5769;47.998;7.788;2024-02-21T13:32:10;17.90;71.50
11426;DHT22;5769;47.998;7.788;2024-02-21T13:34:39;17.90;71.50
11426;DHT22;5769;47.998;7.788;2024-02-21T13:37:15;17.90;71.50
11426;DHT22;5769;47.998;7.788;2024-02-21T13:39:48;17.90;71.50
11426;DHT22;5769;47.998;7.788;2024-02-21T13:42:17;17.90;71.50
11426;DHT22;5769;47.998;7.788;2024-02-21T13:44:48;17.90;71.50
11426;DHT22;5769;47.998;7.788;2024-02-21T13:47:15;17.90;71.50
11426;DHT22;5769;47.998;7.788;2024-02-21T13:49:48;17.90;71.50
11426;DHT22;5769;47.998;7.788;2024-02-21T13:52:16;17.90;71.40
11426;DHT22;5769;47.998;7.788;2024-02-21T13:54:48;17.90;71.50
11426;DHT22;5769;47.998;7.788;2024-02-21T13:57:15;17.90;71.40
11426;DHT22;5769;47.998;7.788;2024-02-21T13:59:48;17.90;71.40
11426;DHT22;5769;47.998;7.788;2024-02-21T14:02:21;17.90;71.40
11426;DHT22;5769;47.998;7.788;2024-02-21T14:04:48;17.90;71.40
11426;DHT22;5769;47.998;7.788;2024-02-21T14:07:21;17.90;71.40
11426;DHT22;5769;47.998;7.788;2024-02-21T14:09:53;17.90;71.40
11426;DHT22;5769;47.998;7.788;2024-02-21T14:12:20;17.90;71.40
11426;DHT22;5769;47.998;7.788;2024-02-21T14:14:47;17.90;71.40
11426;DHT22;5769;47.998;7.788;2024-02-21T14:17:18;17.90;71.40
11426;DHT22;5769;47.998;7.788;2024-02-21T14:19:45;17.90;71.50
11426;DHT22;5769;47.998;7.788;2024-02-21T14:22:12;17.90;71.40
11426;DHT22;5769;47.998;7.788;2024-02-21T14:24:42;17.90;71.40
11426;DHT22;5769;47.998;7.788;2024-02-21T14:27:09;17.90;71.40
11426;DHT22;5769;47.998;7.788;2024-02-21T14:29:35;17.90;71.40
11426;DHT22;5769;47.998;7.788;2024-02-21T14:32:04;17.90;71.40
11426;DHT22;5769;47.998;7.788;2024-02-21T14:34:31;18.00;71.50
11426;DHT22;5769;47.998;7.788;2024-02-21T14:36:59;18.00;71.50
11426;DHT22;5769;47.998;7.788;2024-02-21T14:39:26;18.00;71.50
11426;DHT22;5769;47.998;7.788;2024-02-21T14:41:55;18.00;71.50
11426;DHT22;5769;47.998;7.788;2024-02-21T14:44:25;18.00;71.50
11426;DHT22;5769;47.998;7.788;2024-02-21T14:46:55;18.00;71.50
11426;DHT22;5769;47.998;7.788;2024-02-21T14:49:22;18.00;71.50
11426;DHT22;5769;47.998;7.788;2024-02-21T14:51:50;18.00;71.50
11426;DHT22;5769;47.998;7.788;2024-02-21T14:54:17;18.00;71.50
11426;DHT22;5769;47.998;7.788;2024-02-21T14:56:50;18.00;71.50
11426;DHT22;5769;47.998;7.788;2024-02-21T14:59:18;18.00;71.50
11426;DHT22;5769;47.998;7.788;2024-02-21T15:01:45;18.10;71.60
11426;DHT22;5769;47.998;7.788;2024-02-21T15:04:12;18.10;71.70
11426;DHT22;5769;47.998;7.788;2024-02-21T15:06:39;18.10;71.70
11426;DHT22;5769;47.998;7.788;2024-02-21T15:09:06;18.10;71.70
11426;DHT22;5769;47.998;7.788;2024-02-21T15:11:33;18.10;71.70
11426;DHT22;5769;47.998;7.788;2024-02-21T15:14:00;18.10;71.70
11426;DHT22;5769;47.998;7.788;2024-02-21T15:16:28;18.10;71.70
11426;DHT22;5769;47.998;7.788;2024-02-21T15:19:00;18.10;71.80
11426;DHT22;5769;47.998;7.788;2024-02-21T15:21:28;18.10;71.80
11426;DHT22;5769;47.998;7.788;2024-02-21T15:23:56;18.10;71.80
11426;DHT22;5769;47.998;7.788;2024-02-21T15:26:23;18.10;71.80
11426;DHT22;5769;47.998;7.788;2024-02-21T15:28:54;18.10;71.80
11426;DHT22;5769;47.998;7.788;2024-02-21T15:31:34;18.10;71.80
11426;DHT22;5769;47.998;7.788;2024-02-21T15:34:03;18.20;71.90
11426;DHT22;5769;47.998;7.788;2024-02-21T15:36:30;18.20;71.90
11426;DHT22;5769;47.998;7.788;2024-02-21T15:38:57;18.20;71.90
11426;DHT22;5769;47.998;7.788;2024-02-21T15:41:24;18.20;71.90
11426;DHT22;5769;47.998;7.788;2024-02-21T15:43:54;18.20;71.90
11426;DHT22;5769;47.998;7.788;2024-02-21T15:46:27;18.20;71.90
11426;DHT22;5769;47.998;7.788;2024-02-21T15:48:57;18.20;72.00
11426;DHT22;5769;47.998;7.788;2024-02-21T15:51:30;18.30;72.20
11426;DHT22;5769;47.998;7.788;2024-02-21T15:53:59;18.30;72.20
11426;DHT22;5769;47.998;7.788;2024-02-21T15:56:27;18.30;72.30